sensor_id;sensor_type;location;lat;lon;timestamp;P1;durP1;ratioP1;P2;durP2;ratioP2
18711;SDS011;9485;49.386;8.674;2023-02-22T00:04:18;7.83;;;4.57;;
18711;SDS011;9485;49.386;8.674;2023-02-22T00:09:39;8.33;;;4.63;;
18711;SDS011;9485;49.386;8.674;2023-02-22T00:15:00;8.03;;;5.10;;
18711;SDS011;9485;49.386;8.674;2023-02-22T00:20:22;6.97;;;4.83;;
18711;SDS011;9485;49.386;8.674;2023-02-22T00:25:43;8.20;;;5.00;;
18711;SDS011;9485;49.386;8.674;2023-02-22T00:31:04;8.53;;;5.13;;
18711;SDS011;9485;49.386;8.674;2023-02-22T00:36:28;7.77;;;4.70;;
18711;SDS011;9485;49.386;8.674;2023-02-22T00:41:50;6.60;;;4.67;;
18711;SDS011;9485;49.386;8.674;2023-02-22T00:47:11;7.73;;;4.53;;
18711;SDS011;9485;49.386;8.674;2023-02-22T00:52:35;6.87;;;4.70;;
18711;SDS011;9485;49.386;8.674;2023-02-22T00:57:56;7.13;;;4.87;;
18711;SDS011;9485;49.386;8.674;2023-02-22T01:03:21;9.30;;;5.07;;
18711;SDS011;9485;49.386;8.674;2023-02-22T01:08:44;8.97;;;5.10;;
18711;SDS011;9485;49.386;8.674;2023-02-22T01:14:06;7.43;;;4.87;;
18711;SDS011;9485;49.386;8.674;2023-02-22T01:19:28;10.03;;;5.53;;
18711;SDS011;9485;49.386;8.674;2023-02-22T01:24:52;8.70;;;4.93;;
18711;SDS011;9485;49.386;8.674;2023-02-22T01:30:13;7.27;;;4.87;;
18711;SDS011;9485;49.386;8.674;2023-02-22T01:35:37;8.43;;;5.07;;
18711;SDS011;9485;49.386;8.674;2023-02-22T01:41:00;6.23;;;4.60;;
18711;SDS011;9485;49.386;8.674;2023-02-22T01:46:22;6.10;;;4.90;;
18711;SDS011;9485;49.386;8.674;2023-02-22T01:51:46;8.40;;;5.23;;
18711;SDS011;9485;49.386;8.674;2023-02-22T01:57:14;7.03;;;5.57;;
18711;SDS011;9485;49.386;8.674;2023-02-22T02:02:43;7.57;;;5.00;;
18711;SDS011;9485;49.386;8.674;2023-02-22T02:08:15;5.97;;;4.37;;
18711;SDS011;9485;49.386;8.674;2023-02-22T02:13:49;7.00;;;5.00;;
18711;SDS011;9485;49.386;8.674;2023-02-22T02:19:14;8.83;;;5.10;;
18711;SDS011;9485;49.386;8.674;2023-02-22T02:30:44;8.53;;;5.93;;
18711;SDS011;9485;49.386;8.674;2023-02-22T02:36:39;10.07;;;5.77;;
18711;SDS011;9485;49.386;8.674;2023-02-22T02:42:11;5.57;;;4.70;;
18711;SDS011;9485;49.386;8.674;2023-02-22T02:47:44;6.77;;;5.40;;
18711;SDS011;9485;49.386;8.674;2023-02-22T02:53:12;7.87;;;6.40;;
18711;SDS011;9485;49.386;8.674;2023-02-22T02:58:41;8.90;;;6.27;;
18711;SDS011;9485;49.386;8.674;2023-02-22T03:04:12;6.30;;;5.60;;
18711;SDS011;9485;49.386;8.674;2023-02-22T03:09:51;9.60;;;6.20;;
18711;SDS011;9485;49.386;8.674;2023-02-22T03:15:32;7.30;;;5.23;;
18711;SDS011;9485;49.386;8.674;2023-02-22T03:21:06;5.40;;;4.87;;
18711;SDS011;9485;49.386;8.674;2023-02-22T03:26:42;9.47;;;5.53;;
18711;SDS011;9485;49.386;8.674;2023-02-22T03:32:14;8.10;;;5.57;;
18711;SDS011;9485;49.386;8.674;2023-02-22T03:37:42;8.07;;;5.13;;
18711;SDS011;9485;49.386;8.674;2023-02-22T03:43:12;8.80;;;5.33;;
18711;SDS011;9485;49.386;8.674;2023-02-22T03:48:41;6.90;;;5.57;;
18711;SDS011;9485;49.386;8.674;2023-02-22T03:54:09;7.13;;;5.20;;
18711;SDS011;9485;49.386;8.674;2023-02-22T03:59:35;9.53;;;4.97;;
18711;SDS011;9485;49.386;8.674;2023-02-22T04:04:58;5.87;;;4.83;;
18711;SDS011;9485;49.386;8.674;2023-02-22T04:10:20;7.27;;;5.27;;
18711;SDS011;9485;49.386;8.674;2023-02-22T04:15:43;7.13;;;4.90;;
18711;SDS011;9485;49.386;8.674;2023-02-22T04:21:04;6.73;;;4.87;;
18711;SDS011;9485;49.386;8.674;2023-02-22T04:26:31;8.13;;;4.83;;
18711;SDS011;9485;49.386;8.674;2023-02-22T04:31:56;7.63;;;4.93;;
18711;SDS011;9485;49.386;8.674;2023-02-22T04:37:16;8.27;;;5.27;;
18711;SDS011;9485;49.386;8.674;2023-02-22T04:42:38;7.67;;;5.83;;
18711;SDS011;9485;49.386;8.674;2023-02-22T04:48:00;6.27;;;5.43;;
18711;SDS011;9485;49.386;8.674;2023-02-22T04:53:21;8.50;;;5.63;;
18711;SDS011;9485;49.386;8.674;2023-02-22T04:58:42;5.90;;;5.10;;
18711;SDS011;9485;49.386;8.674;2023-02-22T05:04:05;7.50;;;6.10;;
18711;SDS011;9485;49.386;8.674;2023-02-22T05:09:27;9.47;;;5.90;;
18711;SDS011;9485;49.386;8.674;2023-02-22T05:14:47;7.80;;;6.00;;
18711;SDS011;9485;49.386;8.674;2023-02-22T05:20:10;8.53;;;6.17;;
18711;SDS011;9485;49.386;8.674;2023-02-22T05:25:40;8.23;;;5.37;;
18711;SDS011;9485;49.386;8.674;2023-02-22T05:31:01;8.40;;;5.70;;
18711;SDS011;9485;49.386;8.674;2023-02-22T05:36:23;9.20;;;6.10;;
18711;SDS011;9485;49.386;8.674;2023-02-22T05:41:45;7.73;;;5.47;;
18711;SDS011;9485;49.386;8.674;2023-02-22T05:47:06;7.83;;;5.67;;
18711;SDS011;9485;49.386;8.674;2023-02-22T05:52:28;8.37;;;5.43;;
18711;SDS011;9485;49.386;8.674;2023-02-22T05:57:48;10.83;;;5.83;;
18711;SDS011;9485;49.386;8.674;2023-02-22T06:03:10;9.20;;;5.80;;
18711;SDS011;9485;49.386;8.674;2023-02-22T06:08:33;8.27;;;6.20;;
18711;SDS011;9485;49.386;8.674;2023-02-22T06:13:54;11.17;;;5.57;;
18711;SDS011;9485;49.386;8.674;2023-02-22T06:19:15;10.90;;;5.50;;
18711;SDS011;9485;49.386;8.674;2023-02-22T06:24:38;9.97;;;5.60;;
18711;SDS011;9485;49.386;8.674;2023-02-22T06:29:59;10.57;;;6.50;;
18711;SDS011;9485;49.386;8.674;2023-02-22T06:35:20;12.87;;;6.30;;
18711;SDS011;9485;49.386;8.674;2023-02-22T06:40:43;9.30;;;6.57;;
18711;SDS011;9485;49.386;8.674;2023-02-22T06:46:06;9.53;;;6.13;;
18711;SDS011;9485;49.386;8.674;2023-02-22T06:51:29;10.97;;;6.73;;
18711;SDS011;9485;49.386;8.674;2023-02-22T06:56:57;10.37;;;6.80;;
18711;SDS011;9485;49.386;8.674;2023-02-22T07:02:18;9.03;;;5.77;;
18711;SDS011;9485;49.386;8.674;2023-02-22T07:07:39;8.40;;;5.90;;
18711;SDS011;9485;49.386;8.674;2023-02-22T07:13:01;10.13;;;6.23;;
18711;SDS011;9485;49.386;8.674;2023-02-22T07:18:23;10.80;;;6.37;;
18711;SDS011;9485;49.386;8.674;2023-02-22T07:23:49;11.23;;;7.00;;
18711;SDS011;9485;49.386;8.674;2023-02-22T07:29:12;10.33;;;6.93;;
18711;SDS011;9485;49.386;8.674;2023-02-22T07:34:32;9.60;;;6.53;;
18711;SDS011;9485;49.386;8.674;2023-02-22T07:39:53;9.33;;;7.20;;
18711;SDS011;9485;49.386;8.674;2023-02-22T07:45:15;10.63;;;6.30;;
18711;SDS011;9485;49.386;8.674;2023-02-22T07:50:37;9.17;;;6.10;;
18711;SDS011;9485;49.386;8.674;2023-02-22T07:56:00;10.20;;;7.37;;
18711;SDS011;9485;49.386;8.674;2023-02-22T08:01:24;12.70;;;8.17;;
18711;SDS011;9485;49.386;8.674;2023-02-22T08:06:45;11.60;;;8.10;;
18711;SDS011;9485;49.386;8.674;2023-02-22T08:12:08;9.63;;;7.70;;
18711;SDS011;9485;49.386;8.674;2023-02-22T08:17:30;8.70;;;7.67;;
18711;SDS011;9485;49.386;8.674;2023-02-22T08:22:51;12.23;;;7.80;;
18711;SDS011;9485;49.386;8.674;2023-02-22T08:30:43;10.90;;;6.77;;
18711;SDS011;9485;49.386;8.674;2023-02-22T08:36:04;9.80;;;7.40;;
18711;SDS011;9485;49.386;8.674;2023-02-22T08:41:25;11.23;;;7.47;;
18711;SDS011;9485;49.386;8.674;2023-02-22T08:46:47;15.33;;;8.77;;
18711;SDS011;9485;49.386;8.674;2023-02-22T08:52:09;10.03;;;7.23;;
18711;SDS011;9485;49.386;8.674;2023-02-22T08:57:29;10.73;;;7.77;;
18711;SDS011;9485;49.386;8.674;2023-02-22T09:02:51;10.27;;;7.30;;
18711;SDS011;9485;49.386;8.674;2023-02-22T09:08:12;10.30;;;7.00;;
18711;SDS011;9485;49.386;8.674;2023-02-22T09:13:34;7.87;;;6.83;;
18711;SDS011;9485;49.386;8.674;2023-02-22T09:18:56;8.47;;;6.23;;
18711;SDS011;9485;49.386;8.674;2023-02-22T09:24:17;9.87;;;6.80;;
18711;SDS011;9485;49.386;8.674;2023-02-22T09:29:40;14.70;;;8.10;;
18711;SDS011;9485;49.386;8.674;2023-02-22T09:35:02;8.43;;;6.33;;
18711;SDS011;9485;49.386;8.674;2023-02-22T09:40:27;7.57;;;6.83;;
18711;SDS011;9485;49.386;8.674;2023-02-22T09:45:56;7.67;;;6.00;;
18711;SDS011;9485;49.386;8.674;2023-02-22T09:51:39;8.77;;;6.47;;
18711;SDS011;9485;49.386;8.674;2023-02-22T09:57:08;9.17;;;6.13;;
18711;SDS011;9485;49.386;8.674;2023-02-22T10:02:35;7.23;;;5.70;;
18711;SDS011;9485;49.386;8.674;2023-02-22T10:08:09;8.80;;;6.57;;
18711;SDS011;9485;49.386;8.674;2023-02-22T10:13:34;7.90;;;6.20;;
18711;SDS011;9485;49.386;8.674;2023-02-22T10:19:12;7.73;;;6.10;;
18711;SDS011;9485;49.386;8.674;2023-02-22T10:24:48;9.30;;;6.13;;
18711;SDS011;9485;49.386;8.674;2023-02-22T10:30:19;9.20;;;6.57;;
18711;SDS011;9485;49.386;8.674;2023-02-22T10:35:43;9.07;;;6.47;;
18711;SDS011;9485;49.386;8.674;2023-02-22T10:41:12;9.33;;;6.23;;
18711;SDS011;9485;49.386;8.674;2023-02-22T10:46:44;8.20;;;6.60;;
18711;SDS011;9485;49.386;8.674;2023-02-22T10:52:10;7.50;;;5.57;;
18711;SDS011;9485;49.386;8.674;2023-02-22T10:57:39;9.33;;;6.63;;
18711;SDS011;9485;49.386;8.674;2023-02-22T11:03:05;9.60;;;6.27;;
18711;SDS011;9485;49.386;8.674;2023-02-22T11:08:37;7.80;;;6.03;;
18711;SDS011;9485;49.386;8.674;2023-02-22T11:14:00;9.77;;;6.07;;
18711;SDS011;9485;49.386;8.674;2023-02-22T11:19:25;8.40;;;6.17;;
18711;SDS011;9485;49.386;8.674;2023-02-22T11:24:49;8.23;;;6.47;;
18711;SDS011;9485;49.386;8.674;2023-02-22T11:30:21;7.67;;;5.90;;
18711;SDS011;9485;49.386;8.674;2023-02-22T11:35:49;9.23;;;6.30;;
18711;SDS011;9485;49.386;8.674;2023-02-22T11:41:14;8.67;;;5.97;;
18711;SDS011;9485;49.386;8.674;2023-02-22T11:46:41;8.87;;;6.67;;
18711;SDS011;9485;49.386;8.674;2023-02-22T11:52:09;9.40;;;6.93;;
18711;SDS011;9485;49.386;8.674;2023-02-22T11:57:47;11.43;;;7.90;;
18711;SDS011;9485;49.386;8.674;2023-02-22T12:03:33;12.20;;;6.63;;
18711;SDS011;9485;49.386;8.674;2023-02-22T12:09:24;12.00;;;7.10;;
18711;SDS011;9485;49.386;8.674;2023-02-22T12:14:56;8.23;;;6.40;;
18711;SDS011;9485;49.386;8.674;2023-02-22T12:20:27;11.50;;;6.15;;
18711;SDS011;9485;49.386;8.674;2023-02-22T12:25:58;11.18;;;6.70;;
18711;SDS011;9485;49.386;8.674;2023-02-22T12:31:27;8.65;;;6.95;;
18711;SDS011;9485;49.386;8.674;2023-02-22T12:36:55;14.55;;;6.95;;
18711;SDS011;9485;49.386;8.674;2023-02-22T12:42:29;8.05;;;6.28;;
18711;SDS011;9485;49.386;8.674;2023-02-22T12:48:06;9.85;;;6.45;;
18711;SDS011;9485;49.386;8.674;2023-02-22T12:53:45;7.80;;;6.95;;
18711;SDS011;9485;49.386;8.674;2023-02-22T12:59:19;9.82;;;6.85;;
18711;SDS011;9485;49.386;8.674;2023-02-22T13:04:50;11.20;;;7.30;;
18711;SDS011;9485;49.386;8.674;2023-02-22T13:16:26;10.20;;;6.57;;
18711;SDS011;9485;49.386;8.674;2023-02-22T13:22:01;7.25;;;6.18;;
18711;SDS011;9485;49.386;8.674;2023-02-22T13:27:32;10.52;;;6.88;;
18711;SDS011;9485;49.386;8.674;2023-02-22T13:33:14;9.98;;;7.65;;
18711;SDS011;9485;49.386;8.674;2023-02-22T13:45:22;10.93;;;6.43;;
18711;SDS011;9485;49.386;8.674;2023-02-22T13:51:34;8.48;;;6.72;;
18711;SDS011;9485;49.386;8.674;2023-02-22T13:57:16;8.57;;;6.40;;
18711;SDS011;9485;49.386;8.674;2023-02-22T14:02:57;8.75;;;6.38;;
18711;SDS011;9485;49.386;8.674;2023-02-22T14:08:37;8.55;;;5.95;;
18711;SDS011;9485;49.386;8.674;2023-02-22T14:14:09;8.20;;;6.22;;
18711;SDS011;9485;49.386;8.674;2023-02-22T14:19:38;8.25;;;6.13;;
18711;SDS011;9485;49.386;8.674;2023-02-22T14:24:59;7.82;;;6.18;;
18711;SDS011;9485;49.386;8.674;2023-02-22T14:30:22;10.32;;;7.05;;
18711;SDS011;9485;49.386;8.674;2023-02-22T14:35:46;8.88;;;5.88;;
18711;SDS011;9485;49.386;8.674;2023-02-22T14:41:10;10.05;;;5.82;;
18711;SDS011;9485;49.386;8.674;2023-02-22T14:46:35;7.57;;;5.73;;
18711;SDS011;9485;49.386;8.674;2023-02-22T14:52:03;7.07;;;5.70;;
18711;SDS011;9485;49.386;8.674;2023-02-22T14:57:36;8.55;;;5.72;;
18711;SDS011;9485;49.386;8.674;2023-02-22T15:03:23;13.83;;;6.40;;
18711;SDS011;9485;49.386;8.674;2023-02-22T15:09:03;9.43;;;6.25;;
18711;SDS011;9485;49.386;8.674;2023-02-22T15:14:28;8.97;;;5.80;;
18711;SDS011;9485;49.386;8.674;2023-02-22T15:19:55;9.27;;;6.33;;
18711;SDS011;9485;49.386;8.674;2023-02-22T15:25:18;11.53;;;7.17;;
18711;SDS011;9485;49.386;8.674;2023-02-22T15:30:44;9.57;;;5.93;;
18711;SDS011;9485;49.386;8.674;2023-02-22T15:36:11;12.90;;;6.35;;
18711;SDS011;9485;49.386;8.674;2023-02-22T15:41:37;7.22;;;5.40;;
18711;SDS011;9485;49.386;8.674;2023-02-22T15:46:57;9.90;;;5.50;;
18711;SDS011;9485;49.386;8.674;2023-02-22T15:52:19;8.10;;;5.67;;
18711;SDS011;9485;49.386;8.674;2023-02-22T15:57:45;9.53;;;6.07;;
18711;SDS011;9485;49.386;8.674;2023-02-22T16:03:07;8.70;;;6.30;;
18711;SDS011;9485;49.386;8.674;2023-02-22T16:08:33;10.43;;;6.67;;
18711;SDS011;9485;49.386;8.674;2023-02-22T16:14:04;11.37;;;6.13;;
18711;SDS011;9485;49.386;8.674;2023-02-22T16:19:42;11.43;;;6.63;;
18711;SDS011;9485;49.386;8.674;2023-02-22T16:25:10;12.07;;;6.27;;
18711;SDS011;9485;49.386;8.674;2023-02-22T16:30:45;11.30;;;6.07;;
18711;SDS011;9485;49.386;8.674;2023-02-22T16:36:16;9.80;;;6.20;;
18711;SDS011;9485;49.386;8.674;2023-02-22T16:41:39;12.53;;;6.73;;
18711;SDS011;9485;49.386;8.674;2023-02-22T16:47:04;16.23;;;6.13;;
18711;SDS011;9485;49.386;8.674;2023-02-22T16:52:25;12.63;;;6.73;;
18711;SDS011;9485;49.386;8.674;2023-02-22T16:57:46;11.30;;;6.97;;
18711;SDS011;9485;49.386;8.674;2023-02-22T17:03:12;12.67;;;7.07;;
18711;SDS011;9485;49.386;8.674;2023-02-22T17:08:35;11.87;;;6.80;;
18711;SDS011;9485;49.386;8.674;2023-02-22T17:13:56;11.97;;;6.47;;
18711;SDS011;9485;49.386;8.674;2023-02-22T17:19:19;10.23;;;6.77;;
18711;SDS011;9485;49.386;8.674;2023-02-22T17:24:42;8.77;;;6.23;;
18711;SDS011;9485;49.386;8.674;2023-02-22T17:30:02;10.90;;;6.83;;
18711;SDS011;9485;49.386;8.674;2023-02-22T17:35:25;9.87;;;6.73;;
18711;SDS011;9485;49.386;8.674;2023-02-22T17:40:47;8.13;;;5.87;;
18711;SDS011;9485;49.386;8.674;2023-02-22T17:46:09;9.27;;;6.47;;
18711;SDS011;9485;49.386;8.674;2023-02-22T17:51:32;10.63;;;7.33;;
18711;SDS011;9485;49.386;8.674;2023-02-22T17:56:52;11.10;;;7.67;;
18711;SDS011;9485;49.386;8.674;2023-02-22T18:02:15;11.27;;;7.87;;
18711;SDS011;9485;49.386;8.674;2023-02-22T18:07:37;12.57;;;7.30;;
18711;SDS011;9485;49.386;8.674;2023-02-22T18:12:57;13.00;;;7.93;;
18711;SDS011;9485;49.386;8.674;2023-02-22T18:18:19;14.37;;;8.53;;
18711;SDS011;9485;49.386;8.674;2023-02-22T18:23:42;14.27;;;9.03;;
18711;SDS011;9485;49.386;8.674;2023-02-22T18:29:03;13.87;;;9.07;;
18711;SDS011;9485;49.386;8.674;2023-02-22T18:34:24;13.53;;;9.00;;
18711;SDS011;9485;49.386;8.674;2023-02-22T18:39:47;12.57;;;8.97;;
18711;SDS011;9485;49.386;8.674;2023-02-22T18:45:08;14.60;;;8.87;;
18711;SDS011;9485;49.386;8.674;2023-02-22T18:50:30;14.40;;;9.77;;
18711;SDS011;9485;49.386;8.674;2023-02-22T18:55:51;14.33;;;8.50;;
18711;SDS011;9485;49.386;8.674;2023-02-22T19:01:13;12.67;;;8.77;;
18711;SDS011;9485;49.386;8.674;2023-02-22T19:06:36;12.87;;;8.90;;
18711;SDS011;9485;49.386;8.674;2023-02-22T19:11:59;13.70;;;9.33;;
18711;SDS011;9485;49.386;8.674;2023-02-22T19:17:20;14.70;;;10.27;;
18711;SDS011;9485;49.386;8.674;2023-02-22T19:22:40;14.13;;;9.43;;
18711;SDS011;9485;49.386;8.674;2023-02-22T19:28:03;14.73;;;9.37;;
18711;SDS011;9485;49.386;8.674;2023-02-22T19:33:24;13.27;;;9.27;;
18711;SDS011;9485;49.386;8.674;2023-02-22T19:38:44;19.70;;;12.27;;
18711;SDS011;9485;49.386;8.674;2023-02-22T19:44:06;17.87;;;11.10;;
18711;SDS011;9485;49.386;8.674;2023-02-22T19:49:27;13.83;;;8.57;;
18711;SDS011;9485;49.386;8.674;2023-02-22T19:54:47;15.67;;;8.80;;
18711;SDS011;9485;49.386;8.674;2023-02-22T20:00:10;14.70;;;8.50;;
18711;SDS011;9485;49.386;8.674;2023-02-22T20:05:41;20.00;;;9.73;;
18711;SDS011;9485;49.386;8.674;2023-02-22T20:11:02;14.30;;;9.27;;
18711;SDS011;9485;49.386;8.674;2023-02-22T20:16:24;13.93;;;9.67;;
18711;SDS011;9485;49.386;8.674;2023-02-22T20:21:46;15.90;;;9.57;;
18711;SDS011;9485;49.386;8.674;2023-02-22T20:27:07;15.37;;;10.13;;
18711;SDS011;9485;49.386;8.674;2023-02-22T20:32:29;19.27;;;10.40;;
18711;SDS011;9485;49.386;8.674;2023-02-22T20:37:50;13.70;;;10.23;;
18711;SDS011;9485;49.386;8.674;2023-02-22T20:43:10;15.37;;;10.80;;
18711;SDS011;9485;49.386;8.674;2023-02-22T20:48:33;15.43;;;9.30;;
18711;SDS011;9485;49.386;8.674;2023-02-22T20:53:55;16.00;;;10.63;;
18711;SDS011;9485;49.386;8.674;2023-02-22T20:59:17;18.03;;;11.63;;
18711;SDS011;9485;49.386;8.674;2023-02-22T21:04:40;15.57;;;10.80;;
18711;SDS011;9485;49.386;8.674;2023-02-22T21:10:00;17.93;;;11.83;;
18711;SDS011;9485;49.386;8.674;2023-02-22T21:15:23;18.70;;;12.60;;
18711;SDS011;9485;49.386;8.674;2023-02-22T21:20:46;19.00;;;12.47;;
18711;SDS011;9485;49.386;8.674;2023-02-22T21:26:11;17.80;;;12.80;;
18711;SDS011;9485;49.386;8.674;2023-02-22T21:31:35;19.33;;;12.60;;
18711;SDS011;9485;49.386;8.674;2023-02-22T21:36:57;21.17;;;12.70;;
18711;SDS011;9485;49.386;8.674;2023-02-22T21:42:18;20.53;;;12.73;;
18711;SDS011;9485;49.386;8.674;2023-02-22T21:47:38;21.80;;;13.60;;
18711;SDS011;9485;49.386;8.674;2023-02-22T21:53:01;19.57;;;14.60;;
18711;SDS011;9485;49.386;8.674;2023-02-22T21:58:23;23.23;;;14.53;;
18711;SDS011;9485;49.386;8.674;2023-02-22T22:03:45;24.93;;;15.37;;
18711;SDS011;9485;49.386;8.674;2023-02-22T22:09:07;21.80;;;14.87;;
18711;SDS011;9485;49.386;8.674;2023-02-22T22:14:36;21.13;;;13.27;;
18711;SDS011;9485;49.386;8.674;2023-02-22T22:19:58;20.17;;;13.43;;
18711;SDS011;9485;49.386;8.674;2023-02-22T22:25:21;19.87;;;13.47;;
18711;SDS011;9485;49.386;8.674;2023-02-22T22:30:42;23.13;;;14.93;;
18711;SDS011;9485;49.386;8.674;2023-02-22T22:36:03;21.40;;;14.37;;
18711;SDS011;9485;49.386;8.674;2023-02-22T22:41:26;20.37;;;15.07;;
18711;SDS011;9485;49.386;8.674;2023-02-22T22:46:47;20.00;;;13.83;;
18711;SDS011;9485;49.386;8.674;2023-02-22T22:52:11;19.80;;;13.73;;
18711;SDS011;9485;49.386;8.674;2023-02-22T22:57:38;20.13;;;12.73;;
18711;SDS011;9485;49.386;8.674;2023-02-22T23:02:59;20.23;;;13.07;;
18711;SDS011;9485;49.386;8.674;2023-02-22T23:08:22;21.70;;;13.67;;
18711;SDS011;9485;49.386;8.674;2023-02-22T23:13:48;19.57;;;12.80;;
18711;SDS011;9485;49.386;8.674;2023-02-22T23:19:09;21.63;;;13.60;;
18711;SDS011;9485;49.386;8.674;2023-02-22T23:24:30;20.93;;;14.00;;
18711;SDS011;9485;49.386;8.674;2023-02-22T23:29:55;19.90;;;12.97;;
18711;SDS011;9485;49.386;8.674;2023-02-22T23:35:16;19.93;;;13.33;;
18711;SDS011;9485;49.386;8.674;2023-02-22T23:40:37;22.77;;;14.97;;
18711;SDS011;9485;49.386;8.674;2023-02-22T23:46:03;23.07;;;13.63;;
18711;SDS011;9485;49.386;8.674;2023-02-22T23:51:29;19.37;;;12.13;;
18711;SDS011;9485;49.386;8.674;2023-02-22T23:56:56;19.53;;;13.00;;
